sensor_id;sensor_type;location;lat;lon;timestamp;pressure;altitude;pressure_sealevel;temperature
64916;BMP280;51427;-27.442;153.014;2023-10-13T00:02:01;101454.53;;;29.65
64916;BMP280;51427;-27.442;153.014;2023-10-13T00:04:32;101454.72;;;29.09
64916;BMP280;51427;-27.442;153.014;2023-10-13T00:07:02;101447.44;;;29.36
64916;BMP280;51427;-27.442;153.014;2023-10-13T00:09:31;101453.59;;;29.12
64916;BMP280;51427;-27.442;153.014;2023-10-13T00:12:07;101437.69;;;29.76
64916;BMP280;51427;-27.442;153.014;2023-10-13T00:14:41;101445.03;;;29.11
64916;BMP280;51427;-27.442;153.014;2023-10-13T00:17:12;101439.78;;;29.51
64916;BMP280;51427;-27.442;153.014;2023-10-13T00:19:51;101421.84;;;29.57
64916;BMP280;51427;-27.442;153.014;2023-10-13T00:22:21;101429.75;;;30.30
64916;BMP280;51427;-27.442;153.014;2023-10-13T00:24:49;101427.59;;;29.37
64916;BMP280;51427;-27.442;153.014;2023-10-13T00:27:21;101421.16;;;29.93
64916;BMP280;51427;-27.442;153.014;2023-10-13T00:30:08;101409.25;;;29.92
64916;BMP280;51427;-27.442;153.014;2023-10-13T00:33:01;101409.00;;;29.71
64916;BMP280;51427;-27.442;153.014;2023-10-13T00:35:30;101395.81;;;30.19
64916;BMP280;51427;-27.442;153.014;2023-10-13T00:38:04;101396.72;;;29.13
64916;BMP280;51427;-27.442;153.014;2023-10-13T00:40:44;101391.91;;;30.01
64916;BMP280;51427;-27.442;153.014;2023-10-13T00:43:19;101385.81;;;30.53
64916;BMP280;51427;-27.442;153.014;2023-10-13T00:48:25;101370.91;;;30.40
64916;BMP280;51427;-27.442;153.014;2023-10-13T00:51:04;101371.69;;;30.26
64916;BMP280;51427;-27.442;153.014;2023-10-13T00:53:40;101361.25;;;30.57
64916;BMP280;51427;-27.442;153.014;2023-10-13T00:56:07;101369.88;;;30.63
64916;BMP280;51427;-27.442;153.014;2023-10-13T00:58:45;101363.47;;;31.17
64916;BMP280;51427;-27.442;153.014;2023-10-13T01:01:13;101361.78;;;31.09
64916;BMP280;51427;-27.442;153.014;2023-10-13T01:03:51;101352.06;;;30.97
64916;BMP280;51427;-27.442;153.014;2023-10-13T01:06:29;101340.88;;;31.60
64916;BMP280;51427;-27.442;153.014;2023-10-13T01:11:40;101336.34;;;30.27
64916;BMP280;51427;-27.442;153.014;2023-10-13T01:14:10;101334.06;;;30.75
64916;BMP280;51427;-27.442;153.014;2023-10-13T01:16:41;101329.38;;;31.28
64916;BMP280;51427;-27.442;153.014;2023-10-13T01:19:16;101315.06;;;31.32
64916;BMP280;51427;-27.442;153.014;2023-10-13T01:21:55;101321.78;;;31.26
64916;BMP280;51427;-27.442;153.014;2023-10-13T01:24:39;101310.63;;;31.82
64916;BMP280;51427;-27.442;153.014;2023-10-13T01:27:07;101296.38;;;31.71
64916;BMP280;51427;-27.442;153.014;2023-10-13T01:29:44;101290.81;;;31.33
64916;BMP280;51427;-27.442;153.014;2023-10-13T01:32:18;101281.66;;;31.72
64916;BMP280;51427;-27.442;153.014;2023-10-13T01:34:45;101274.25;;;31.69
64916;BMP280;51427;-27.442;153.014;2023-10-13T01:37:14;101275.84;;;30.79
64916;BMP280;51427;-27.442;153.014;2023-10-13T01:39:45;101275.25;;;30.91
64916;BMP280;51427;-27.442;153.014;2023-10-13T01:42:14;101255.66;;;31.86
64916;BMP280;51427;-27.442;153.014;2023-10-13T01:44:46;101256.00;;;31.98
64916;BMP280;51427;-27.442;153.014;2023-10-13T01:47:13;101247.34;;;31.22
64916;BMP280;51427;-27.442;153.014;2023-10-13T01:49:42;101234.59;;;32.16
64916;BMP280;51427;-27.442;153.014;2023-10-13T01:52:14;101231.16;;;31.82
64916;BMP280;51427;-27.442;153.014;2023-10-13T01:54:48;101234.13;;;31.79
64916;BMP280;51427;-27.442;153.014;2023-10-13T01:57:16;101217.03;;;32.12
64916;BMP280;51427;-27.442;153.014;2023-10-13T01:59:50;101217.03;;;32.92
64916;BMP280;51427;-27.442;153.014;2023-10-13T02:02:17;101211.41;;;32.02
64916;BMP280;51427;-27.442;153.014;2023-10-13T02:04:55;101209.34;;;32.31
64916;BMP280;51427;-27.442;153.014;2023-10-13T02:07:29;101203.59;;;32.89
64916;BMP280;51427;-27.442;153.014;2023-10-13T02:10:01;101198.94;;;32.52
64916;BMP280;51427;-27.442;153.014;2023-10-13T02:12:32;101192.28;;;33.15
64916;BMP280;51427;-27.442;153.014;2023-10-13T02:15:12;101186.88;;;32.91
64916;BMP280;51427;-27.442;153.014;2023-10-13T02:17:48;101177.94;;;33.00
64916;BMP280;51427;-27.442;153.014;2023-10-13T02:20:21;101168.38;;;33.45
64916;BMP280;51427;-27.442;153.014;2023-10-13T02:22:52;101163.72;;;32.83
64916;BMP280;51427;-27.442;153.014;2023-10-13T02:25:20;101151.66;;;32.50
64916;BMP280;51427;-27.442;153.014;2023-10-13T02:28:02;101156.00;;;33.47
64916;BMP280;51427;-27.442;153.014;2023-10-13T02:30:44;101157.59;;;33.03
64916;BMP280;51427;-27.442;153.014;2023-10-13T02:33:12;101146.66;;;32.42
64916;BMP280;51427;-27.442;153.014;2023-10-13T02:35:40;101136.41;;;32.93
64916;BMP280;51427;-27.442;153.014;2023-10-13T02:38:08;101137.03;;;33.21
64916;BMP280;51427;-27.442;153.014;2023-10-13T02:40:41;101129.44;;;33.26
64916;BMP280;51427;-27.442;153.014;2023-10-13T02:43:08;101131.25;;;32.28
64916;BMP280;51427;-27.442;153.014;2023-10-13T02:45:35;101126.84;;;33.33
64916;BMP280;51427;-27.442;153.014;2023-10-13T02:48:06;101122.38;;;33.91
64916;BMP280;51427;-27.442;153.014;2023-10-13T02:50:40;101126.66;;;34.23
64916;BMP280;51427;-27.442;153.014;2023-10-13T02:53:11;101133.03;;;32.21
64916;BMP280;51427;-27.442;153.014;2023-10-13T02:55:50;101135.31;;;29.95
64916;BMP280;51427;-27.442;153.014;2023-10-13T02:58:17;101125.03;;;31.82
64916;BMP280;51427;-27.442;153.014;2023-10-13T03:00:45;101128.81;;;31.25
64916;BMP280;51427;-27.442;153.014;2023-10-13T03:03:13;101128.50;;;30.52
64916;BMP280;51427;-27.442;153.014;2023-10-13T03:05:46;101131.25;;;29.13
64916;BMP280;51427;-27.442;153.014;2023-10-13T03:08:13;101111.63;;;30.35
64916;BMP280;51427;-27.442;153.014;2023-10-13T03:10:52;101117.16;;;29.89
64916;BMP280;51427;-27.442;153.014;2023-10-13T03:13:20;101124.47;;;29.85
64916;BMP280;51427;-27.442;153.014;2023-10-13T03:15:48;101125.22;;;30.29
64916;BMP280;51427;-27.442;153.014;2023-10-13T03:18:15;101113.13;;;30.44
64916;BMP280;51427;-27.442;153.014;2023-10-13T03:20:44;101118.06;;;28.86
64916;BMP280;51427;-27.442;153.014;2023-10-13T03:23:16;101103.38;;;28.94
64916;BMP280;51427;-27.442;153.014;2023-10-13T03:25:43;101108.22;;;28.89
64916;BMP280;51427;-27.442;153.014;2023-10-13T03:28:16;101102.59;;;29.30
64916;BMP280;51427;-27.442;153.014;2023-10-13T03:30:46;101114.19;;;30.06
64916;BMP280;51427;-27.442;153.014;2023-10-13T03:33:19;101112.81;;;28.79
64916;BMP280;51427;-27.442;153.014;2023-10-13T03:35:52;101109.16;;;28.96
64916;BMP280;51427;-27.442;153.014;2023-10-13T03:38:32;101103.56;;;28.63
64916;BMP280;51427;-27.442;153.014;2023-10-13T03:41:02;101113.38;;;28.89
64916;BMP280;51427;-27.442;153.014;2023-10-13T03:43:34;101106.06;;;29.01
64916;BMP280;51427;-27.442;153.014;2023-10-13T03:46:37;101114.72;;;27.63
64916;BMP280;51427;-27.442;153.014;2023-10-13T03:49:08;101097.31;;;28.27
64916;BMP280;51427;-27.442;153.014;2023-10-13T03:51:40;101089.25;;;28.60
64916;BMP280;51427;-27.442;153.014;2023-10-13T03:54:07;101089.00;;;28.77
64916;BMP280;51427;-27.442;153.014;2023-10-13T03:56:36;101102.94;;;27.84
64916;BMP280;51427;-27.442;153.014;2023-10-13T03:59:07;101100.28;;;28.16
64916;BMP280;51427;-27.442;153.014;2023-10-13T04:01:45;101082.25;;;28.16
64916;BMP280;51427;-27.442;153.014;2023-10-13T04:04:35;101100.44;;;28.15
64916;BMP280;51427;-27.442;153.014;2023-10-13T04:07:29;101106.88;;;27.57
64916;BMP280;51427;-27.442;153.014;2023-10-13T04:10:28;101097.34;;;27.81
64916;BMP280;51427;-27.442;153.014;2023-10-13T04:13:13;101099.59;;;28.22
64916;BMP280;51427;-27.442;153.014;2023-10-13T04:15:58;101083.75;;;27.41
64916;BMP280;51427;-27.442;153.014;2023-10-13T04:18:41;101115.22;;;28.21
64916;BMP280;51427;-27.442;153.014;2023-10-13T04:21:26;101109.06;;;27.83
64916;BMP280;51427;-27.442;153.014;2023-10-13T04:24:12;101103.00;;;27.37
64916;BMP280;51427;-27.442;153.014;2023-10-13T04:26:50;101091.16;;;27.28
64916;BMP280;51427;-27.442;153.014;2023-10-13T04:29:36;101084.72;;;27.16
64916;BMP280;51427;-27.442;153.014;2023-10-13T04:32:16;101106.66;;;27.74
64916;BMP280;51427;-27.442;153.014;2023-10-13T04:35:07;101086.94;;;27.43
64916;BMP280;51427;-27.442;153.014;2023-10-13T04:37:40;101098.84;;;27.44
64916;BMP280;51427;-27.442;153.014;2023-10-13T04:40:20;101076.19;;;27.39
64916;BMP280;51427;-27.442;153.014;2023-10-13T04:43:01;101094.97;;;27.56
64916;BMP280;51427;-27.442;153.014;2023-10-13T04:45:51;101086.34;;;27.17
64916;BMP280;51427;-27.442;153.014;2023-10-13T04:48:21;101079.00;;;27.76
64916;BMP280;51427;-27.442;153.014;2023-10-13T04:50:49;101101.25;;;27.61
64916;BMP280;51427;-27.442;153.014;2023-10-13T04:53:42;101087.91;;;27.66
64916;BMP280;51427;-27.442;153.014;2023-10-13T04:56:38;101083.41;;;27.60
64916;BMP280;51427;-27.442;153.014;2023-10-13T04:59:09;101090.78;;;27.71
64916;BMP280;51427;-27.442;153.014;2023-10-13T05:01:44;101076.28;;;27.78
64916;BMP280;51427;-27.442;153.014;2023-10-13T05:04:41;101079.19;;;27.83
64916;BMP280;51427;-27.442;153.014;2023-10-13T05:07:45;101088.25;;;27.55
64916;BMP280;51427;-27.442;153.014;2023-10-13T05:10:31;101080.22;;;27.26
64916;BMP280;51427;-27.442;153.014;2023-10-13T05:13:21;101077.81;;;27.25
64916;BMP280;51427;-27.442;153.014;2023-10-13T05:16:06;101072.47;;;27.66
64916;BMP280;51427;-27.442;153.014;2023-10-13T05:18:52;101070.00;;;27.80
64916;BMP280;51427;-27.442;153.014;2023-10-13T05:21:37;101080.31;;;27.72
64916;BMP280;51427;-27.442;153.014;2023-10-13T05:24:22;101092.25;;;27.41
64916;BMP280;51427;-27.442;153.014;2023-10-13T05:27:08;101085.69;;;27.39
64916;BMP280;51427;-27.442;153.014;2023-10-13T05:29:54;101097.44;;;27.02
64916;BMP280;51427;-27.442;153.014;2023-10-13T05:32:39;101093.25;;;27.01
64916;BMP280;51427;-27.442;153.014;2023-10-13T05:35:25;101096.88;;;26.83
64916;BMP280;51427;-27.442;153.014;2023-10-13T05:38:11;101097.84;;;26.74
64916;BMP280;51427;-27.442;153.014;2023-10-13T05:40:59;101084.72;;;26.85
64916;BMP280;51427;-27.442;153.014;2023-10-13T05:43:44;101086.59;;;26.75
64916;BMP280;51427;-27.442;153.014;2023-10-13T05:46:29;101093.97;;;26.62
64916;BMP280;51427;-27.442;153.014;2023-10-13T05:49:07;101094.84;;;26.29
64916;BMP280;51427;-27.442;153.014;2023-10-13T05:51:45;101097.16;;;26.48
64916;BMP280;51427;-27.442;153.014;2023-10-13T05:54:33;101095.44;;;26.72
64916;BMP280;51427;-27.442;153.014;2023-10-13T05:57:19;101091.78;;;26.98
64916;BMP280;51427;-27.442;153.014;2023-10-13T06:00:05;101095.97;;;26.91
64916;BMP280;51427;-27.442;153.014;2023-10-13T06:02:52;101100.59;;;26.80
64916;BMP280;51427;-27.442;153.014;2023-10-13T06:05:40;101097.50;;;26.61
64916;BMP280;51427;-27.442;153.014;2023-10-13T06:08:26;101105.56;;;26.25
64916;BMP280;51427;-27.442;153.014;2023-10-13T06:11:11;101098.78;;;26.49
64916;BMP280;51427;-27.442;153.014;2023-10-13T06:13:57;101111.19;;;26.28
64916;BMP280;51427;-27.442;153.014;2023-10-13T06:16:43;101109.91;;;25.99
64916;BMP280;51427;-27.442;153.014;2023-10-13T06:19:31;101115.22;;;25.98
64916;BMP280;51427;-27.442;153.014;2023-10-13T06:22:17;101119.25;;;26.08
64916;BMP280;51427;-27.442;153.014;2023-10-13T06:25:02;101133.06;;;26.40
64916;BMP280;51427;-27.442;153.014;2023-10-13T06:27:48;101121.09;;;26.23
64916;BMP280;51427;-27.442;153.014;2023-10-13T06:30:33;101126.34;;;25.81
64916;BMP280;51427;-27.442;153.014;2023-10-13T06:33:01;101127.94;;;25.82
64916;BMP280;51427;-27.442;153.014;2023-10-13T06:35:31;101126.16;;;25.74
64916;BMP280;51427;-27.442;153.014;2023-10-13T06:38:01;101131.44;;;26.06
64916;BMP280;51427;-27.442;153.014;2023-10-13T06:40:29;101141.16;;;25.69
64916;BMP280;51427;-27.442;153.014;2023-10-13T06:43:00;101137.09;;;25.59
64916;BMP280;51427;-27.442;153.014;2023-10-13T06:45:44;101147.47;;;25.57
64916;BMP280;51427;-27.442;153.014;2023-10-13T06:48:27;101150.44;;;25.45
64916;BMP280;51427;-27.442;153.014;2023-10-13T06:51:07;101150.53;;;25.36
64916;BMP280;51427;-27.442;153.014;2023-10-13T06:53:45;101163.78;;;25.14
64916;BMP280;51427;-27.442;153.014;2023-10-13T06:56:15;101162.38;;;25.19
64916;BMP280;51427;-27.442;153.014;2023-10-13T06:59:04;101196.66;;;25.18
64916;BMP280;51427;-27.442;153.014;2023-10-13T07:01:35;101223.56;;;25.05
64916;BMP280;51427;-27.442;153.014;2023-10-13T07:04:10;101232.78;;;24.89
64916;BMP280;51427;-27.442;153.014;2023-10-13T07:06:42;101230.41;;;24.78
64916;BMP280;51427;-27.442;153.014;2023-10-13T07:09:17;101218.72;;;24.75
64916;BMP280;51427;-27.442;153.014;2023-10-13T07:12:04;101212.88;;;24.56
64916;BMP280;51427;-27.442;153.014;2023-10-13T07:14:50;101220.91;;;24.34
64916;BMP280;51427;-27.442;153.014;2023-10-13T07:17:41;101243.22;;;24.42
64916;BMP280;51427;-27.442;153.014;2023-10-13T07:20:11;101269.19;;;24.47
64916;BMP280;51427;-27.442;153.014;2023-10-13T07:22:43;101292.09;;;24.48
64916;BMP280;51427;-27.442;153.014;2023-10-13T07:25:37;101306.78;;;24.46
64916;BMP280;51427;-27.442;153.014;2023-10-13T07:28:08;101303.72;;;24.24
64916;BMP280;51427;-27.442;153.014;2023-10-13T07:30:38;101296.19;;;24.32
64916;BMP280;51427;-27.442;153.014;2023-10-13T07:33:22;101317.06;;;24.09
64916;BMP280;51427;-27.442;153.014;2023-10-13T07:36:05;101313.84;;;23.97
64916;BMP280;51427;-27.442;153.014;2023-10-13T07:38:45;101307.91;;;23.87
64916;BMP280;51427;-27.442;153.014;2023-10-13T07:41:35;101309.66;;;23.77
64916;BMP280;51427;-27.442;153.014;2023-10-13T07:44:05;101337.66;;;23.79
64916;BMP280;51427;-27.442;153.014;2023-10-13T07:46:33;101343.16;;;23.84
64916;BMP280;51427;-27.442;153.014;2023-10-13T07:49:02;101345.31;;;23.79
64916;BMP280;51427;-27.442;153.014;2023-10-13T07:51:37;101353.38;;;23.74
64916;BMP280;51427;-27.442;153.014;2023-10-13T07:54:14;101359.81;;;23.69
64916;BMP280;51427;-27.442;153.014;2023-10-13T07:56:49;101359.69;;;23.70
64916;BMP280;51427;-27.442;153.014;2023-10-13T07:59:18;101351.47;;;23.67
64916;BMP280;51427;-27.442;153.014;2023-10-13T08:01:50;101350.69;;;23.67
64916;BMP280;51427;-27.442;153.014;2023-10-13T08:04:38;101368.94;;;23.62
64916;BMP280;51427;-27.442;153.014;2023-10-13T08:07:09;101367.69;;;23.57
64916;BMP280;51427;-27.442;153.014;2023-10-13T08:09:42;101372.97;;;23.55
64916;BMP280;51427;-27.442;153.014;2023-10-13T08:12:18;101382.63;;;23.52
64916;BMP280;51427;-27.442;153.014;2023-10-13T08:14:48;101384.91;;;23.45
64916;BMP280;51427;-27.442;153.014;2023-10-13T08:17:41;101386.63;;;23.35
64916;BMP280;51427;-27.442;153.014;2023-10-13T08:20:11;101398.19;;;23.39
64916;BMP280;51427;-27.442;153.014;2023-10-13T08:22:43;101399.53;;;23.34
64916;BMP280;51427;-27.442;153.014;2023-10-13T08:25:14;101414.06;;;23.33
64916;BMP280;51427;-27.442;153.014;2023-10-13T08:27:48;101401.41;;;23.32
64916;BMP280;51427;-27.442;153.014;2023-10-13T08:30:55;101414.06;;;23.33
64916;BMP280;51427;-27.442;153.014;2023-10-13T08:33:24;101415.66;;;23.34
64916;BMP280;51427;-27.442;153.014;2023-10-13T08:35:54;101421.72;;;23.33
64916;BMP280;51427;-27.442;153.014;2023-10-13T08:38:42;101429.50;;;23.32
64916;BMP280;51427;-27.442;153.014;2023-10-13T08:41:23;101429.38;;;23.33
64916;BMP280;51427;-27.442;153.014;2023-10-13T08:43:51;101441.47;;;23.41
64916;BMP280;51427;-27.442;153.014;2023-10-13T08:46:20;101448.25;;;23.51
64916;BMP280;51427;-27.442;153.014;2023-10-13T08:48:57;101462.63;;;23.43
64916;BMP280;51427;-27.442;153.014;2023-10-13T08:51:36;101466.47;;;23.37
64916;BMP280;51427;-27.442;153.014;2023-10-13T08:54:17;101473.88;;;23.40
64916;BMP280;51427;-27.442;153.014;2023-10-13T08:57:01;101468.91;;;23.39
64916;BMP280;51427;-27.442;153.014;2023-10-13T09:00:09;101476.72;;;23.47
64916;BMP280;51427;-27.442;153.014;2023-10-13T09:03:16;101491.72;;;23.31
64916;BMP280;51427;-27.442;153.014;2023-10-13T09:06:14;101492.91;;;23.27
64916;BMP280;51427;-27.442;153.014;2023-10-13T09:08:48;101483.38;;;23.29
64916;BMP280;51427;-27.442;153.014;2023-10-13T09:11:35;101490.22;;;23.28
64916;BMP280;51427;-27.442;153.014;2023-10-13T09:14:23;101492.47;;;23.22
64916;BMP280;51427;-27.442;153.014;2023-10-13T09:17:07;101503.63;;;23.41
64916;BMP280;51427;-27.442;153.014;2023-10-13T09:19:54;101513.72;;;23.22
64916;BMP280;51427;-27.442;153.014;2023-10-13T09:22:27;101514.47;;;23.14
64916;BMP280;51427;-27.442;153.014;2023-10-13T09:25:05;101519.94;;;23.29
64916;BMP280;51427;-27.442;153.014;2023-10-13T09:27:40;101519.69;;;23.32
64916;BMP280;51427;-27.442;153.014;2023-10-13T09:30:08;101520.94;;;23.18
64916;BMP280;51427;-27.442;153.014;2023-10-13T09:33:09;101531.34;;;23.25
64916;BMP280;51427;-27.442;153.014;2023-10-13T09:35:45;101543.59;;;23.11
64916;BMP280;51427;-27.442;153.014;2023-10-13T09:38:17;101543.56;;;23.02
64916;BMP280;51427;-27.442;153.014;2023-10-13T09:40:45;101547.25;;;23.09
64916;BMP280;51427;-27.442;153.014;2023-10-13T09:43:18;101550.09;;;22.95
64916;BMP280;51427;-27.442;153.014;2023-10-13T09:45:50;101557.28;;;23.21
64916;BMP280;51427;-27.442;153.014;2023-10-13T09:48:45;101556.56;;;22.99
64916;BMP280;51427;-27.442;153.014;2023-10-13T09:51:31;101560.69;;;23.11
64916;BMP280;51427;-27.442;153.014;2023-10-13T09:54:14;101564.16;;;23.10
64916;BMP280;51427;-27.442;153.014;2023-10-13T09:56:54;101571.38;;;23.05
64916;BMP280;51427;-27.442;153.014;2023-10-13T09:59:57;101579.13;;;23.14
64916;BMP280;51427;-27.442;153.014;2023-10-13T10:02:36;101583.00;;;23.29
64916;BMP280;51427;-27.442;153.014;2023-10-13T10:05:10;101580.19;;;23.32
64916;BMP280;51427;-27.442;153.014;2023-10-13T10:07:58;101579.91;;;23.15
64916;BMP280;51427;-27.442;153.014;2023-10-13T10:13:50;101587.56;;;23.15
64916;BMP280;51427;-27.442;153.014;2023-10-13T10:19:18;101588.91;;;23.09
64916;BMP280;51427;-27.442;153.014;2023-10-13T10:21:47;101593.81;;;23.01
64916;BMP280;51427;-27.442;153.014;2023-10-13T10:24:16;101600.66;;;23.01
64916;BMP280;51427;-27.442;153.014;2023-10-13T10:26:57;101600.66;;;23.01
64916;BMP280;51427;-27.442;153.014;2023-10-13T10:29:54;101609.38;;;23.19
64916;BMP280;51427;-27.442;153.014;2023-10-13T10:32:33;101608.34;;;23.21
64916;BMP280;51427;-27.442;153.014;2023-10-13T10:35:06;101615.22;;;23.10
64916;BMP280;51427;-27.442;153.014;2023-10-13T10:37:42;101613.81;;;23.17
64916;BMP280;51427;-27.442;153.014;2023-10-13T10:40:16;101618.34;;;23.13
64916;BMP280;51427;-27.442;153.014;2023-10-13T10:43:02;101615.50;;;23.47
64916;BMP280;51427;-27.442;153.014;2023-10-13T10:45:38;101625.28;;;23.22
64916;BMP280;51427;-27.442;153.014;2023-10-13T10:48:12;101629.00;;;23.18
64916;BMP280;51427;-27.442;153.014;2023-10-13T10:50:57;101630.03;;;22.95
64916;BMP280;51427;-27.442;153.014;2023-10-13T10:53:34;101627.69;;;23.23
64916;BMP280;51427;-27.442;153.014;2023-10-13T10:56:11;101641.59;;;23.10
64916;BMP280;51427;-27.442;153.014;2023-10-13T10:58:59;101645.69;;;22.80
64916;BMP280;51427;-27.442;153.014;2023-10-13T11:01:31;101645.50;;;22.72
64916;BMP280;51427;-27.442;153.014;2023-10-13T11:04:08;101646.19;;;22.63
64916;BMP280;51427;-27.442;153.014;2023-10-13T11:06:57;101653.44;;;23.31
64916;BMP280;51427;-27.442;153.014;2023-10-13T11:09:32;101654.75;;;22.95
64916;BMP280;51427;-27.442;153.014;2023-10-13T11:12:20;101649.06;;;22.80
64916;BMP280;51427;-27.442;153.014;2023-10-13T11:15:06;101653.59;;;22.77
64916;BMP280;51427;-27.442;153.014;2023-10-13T11:17:49;101652.66;;;22.89
64916;BMP280;51427;-27.442;153.014;2023-10-13T11:20:24;101660.25;;;22.58
64916;BMP280;51427;-27.442;153.014;2023-10-13T11:23:13;101661.59;;;22.73
64916;BMP280;51427;-27.442;153.014;2023-10-13T11:25:42;101673.94;;;22.46
64916;BMP280;51427;-27.442;153.014;2023-10-13T11:28:14;101665.47;;;22.56
64916;BMP280;51427;-27.442;153.014;2023-10-13T11:30:47;101670.00;;;22.53
64916;BMP280;51427;-27.442;153.014;2023-10-13T11:33:21;101658.84;;;22.54
64916;BMP280;51427;-27.442;153.014;2023-10-13T11:36:09;101674.91;;;22.34
64916;BMP280;51427;-27.442;153.014;2023-10-13T11:38:42;101675.47;;;22.37
64916;BMP280;51427;-27.442;153.014;2023-10-13T11:41:17;101677.03;;;22.17
64916;BMP280;51427;-27.442;153.014;2023-10-13T11:43:47;101672.78;;;22.17
64916;BMP280;51427;-27.442;153.014;2023-10-13T11:46:26;101675.00;;;22.22
64916;BMP280;51427;-27.442;153.014;2023-10-13T11:49:04;101659.31;;;22.15
64916;BMP280;51427;-27.442;153.014;2023-10-13T11:51:53;101672.66;;;22.08
64916;BMP280;51427;-27.442;153.014;2023-10-13T11:54:43;101674.13;;;21.99
64916;BMP280;51427;-27.442;153.014;2023-10-13T11:57:11;101679.81;;;22.03
64916;BMP280;51427;-27.442;153.014;2023-10-13T11:59:39;101679.25;;;22.10
64916;BMP280;51427;-27.442;153.014;2023-10-13T12:02:22;101682.00;;;21.96
64916;BMP280;51427;-27.442;153.014;2023-10-13T12:04:53;101686.06;;;21.99
64916;BMP280;51427;-27.442;153.014;2023-10-13T12:07:24;101682.13;;;21.95
64916;BMP280;51427;-27.442;153.014;2023-10-13T12:10:12;101695.59;;;21.97
64916;BMP280;51427;-27.442;153.014;2023-10-13T12:12:50;101686.88;;;21.99
64916;BMP280;51427;-27.442;153.014;2023-10-13T12:15:21;101693.81;;;21.86
64916;BMP280;51427;-27.442;153.014;2023-10-13T12:17:52;101703.22;;;21.97
64916;BMP280;51427;-27.442;153.014;2023-10-13T12:20:28;101702.25;;;21.87
64916;BMP280;51427;-27.442;153.014;2023-10-13T12:23:03;101705.66;;;21.87
64916;BMP280;51427;-27.442;153.014;2023-10-13T12:25:45;101701.25;;;21.89
64916;BMP280;51427;-27.442;153.014;2023-10-13T12:28:25;101708.09;;;21.89
64916;BMP280;51427;-27.442;153.014;2023-10-13T12:31:04;101711.09;;;21.94
64916;BMP280;51427;-27.442;153.014;2023-10-13T12:33:34;101706.44;;;21.88
64916;BMP280;51427;-27.442;153.014;2023-10-13T12:36:07;101708.19;;;21.87
64916;BMP280;51427;-27.442;153.014;2023-10-13T12:38:38;101710.03;;;21.85
64916;BMP280;51427;-27.442;153.014;2023-10-13T12:41:19;101717.81;;;21.95
64916;BMP280;51427;-27.442;153.014;2023-10-13T12:44:07;101710.13;;;21.84
64916;BMP280;51427;-27.442;153.014;2023-10-13T12:46:53;101717.31;;;21.79
64916;BMP280;51427;-27.442;153.014;2023-10-13T12:49:39;101711.31;;;21.91
64916;BMP280;51427;-27.442;153.014;2023-10-13T12:52:10;101717.09;;;21.82
64916;BMP280;51427;-27.442;153.014;2023-10-13T12:55:11;101717.28;;;21.68
64916;BMP280;51427;-27.442;153.014;2023-10-13T12:57:40;101711.25;;;21.69
64916;BMP280;51427;-27.442;153.014;2023-10-13T13:00:12;101704.44;;;21.70
64916;BMP280;51427;-27.442;153.014;2023-10-13T13:02:52;101710.78;;;21.64
64916;BMP280;51427;-27.442;153.014;2023-10-13T13:05:22;101711.00;;;21.61
64916;BMP280;51427;-27.442;153.014;2023-10-13T13:07:55;101717.34;;;21.56
64916;BMP280;51427;-27.442;153.014;2023-10-13T13:10:23;101724.41;;;21.52
64916;BMP280;51427;-27.442;153.014;2023-10-13T13:13:04;101727.44;;;21.57
64916;BMP280;51427;-27.442;153.014;2023-10-13T13:15:32;101717.13;;;21.59
64916;BMP280;51427;-27.442;153.014;2023-10-13T13:18:00;101725.94;;;21.55
64916;BMP280;51427;-27.442;153.014;2023-10-13T13:20:36;101723.09;;;21.47
64916;BMP280;51427;-27.442;153.014;2023-10-13T13:23:06;101728.06;;;21.48
64916;BMP280;51427;-27.442;153.014;2023-10-13T13:25:34;101722.88;;;21.50
64916;BMP280;51427;-27.442;153.014;2023-10-13T13:28:12;101719.53;;;21.49
64916;BMP280;51427;-27.442;153.014;2023-10-13T13:30:41;101717.19;;;21.46
64916;BMP280;51427;-27.442;153.014;2023-10-13T13:33:09;101728.06;;;21.48
64916;BMP280;51427;-27.442;153.014;2023-10-13T13:35:43;101723.81;;;21.49
64916;BMP280;51427;-27.442;153.014;2023-10-13T13:38:15;101715.34;;;21.48
64916;BMP280;51427;-27.442;153.014;2023-10-13T13:40:49;101713.19;;;21.55
64916;BMP280;51427;-27.442;153.014;2023-10-13T13:43:24;101708.69;;;21.58
64916;BMP280;51427;-27.442;153.014;2023-10-13T13:46:24;101706.31;;;21.44
64916;BMP280;51427;-27.442;153.014;2023-10-13T13:51:47;101708.44;;;21.50
64916;BMP280;51427;-27.442;153.014;2023-10-13T13:54:19;101706.41;;;21.43
64916;BMP280;51427;-27.442;153.014;2023-10-13T13:56:47;101697.75;;;21.45
64916;BMP280;51427;-27.442;153.014;2023-10-13T13:59:16;101693.06;;;21.39
64916;BMP280;51427;-27.442;153.014;2023-10-13T14:01:52;101693.66;;;21.43
64916;BMP280;51427;-27.442;153.014;2023-10-13T14:04:19;101696.28;;;21.31
64916;BMP280;51427;-27.442;153.014;2023-10-13T14:06:47;101692.13;;;21.40
64916;BMP280;51427;-27.442;153.014;2023-10-13T14:09:17;101682.47;;;21.45
64916;BMP280;51427;-27.442;153.014;2023-10-13T14:12:04;101688.31;;;21.35
64916;BMP280;51427;-27.442;153.014;2023-10-13T14:14:50;101681.53;;;21.46
64916;BMP280;51427;-27.442;153.014;2023-10-13T14:17:26;101690.84;;;21.35
64916;BMP280;51427;-27.442;153.014;2023-10-13T14:19:57;101696.97;;;21.33
64916;BMP280;51427;-27.442;153.014;2023-10-13T14:22:25;101684.78;;;21.25
64916;BMP280;51427;-27.442;153.014;2023-10-13T14:24:53;101683.53;;;21.31
64916;BMP280;51427;-27.442;153.014;2023-10-13T14:27:25;101677.59;;;21.19
64916;BMP280;51427;-27.442;153.014;2023-10-13T14:29:56;101679.09;;;21.22
64916;BMP280;51427;-27.442;153.014;2023-10-13T14:32:24;101675.38;;;21.15